Andersonville, Virginia
Current Conditions -  °F | °C
As of 12:35 PM on Thursday 30 Oct 2014 (Local Time) from KFVX Reporting Station
Clear Clear  
Wind Chill: 61°   Ceiling: Unl
Heat Index: 61°   Visibility: 10mi
Dew Point: 41°   Wind: 5mph
Humidity: 48%   Direction: 30°NNE
Pressure: 30.04"   Gusts: NA
Location:  37.47°N, 78.57°W
Report Text: KFVX 301635Z AUTO 03004KT 10SM CLR 16/05 A3004 RMK AO2
Loading
Personal Weather Stations






























Interactive Weather Map
Tropical Storm Tracking
New forecast layout! Learn more

10-Day Weather Forecast

Advertisements
Track Severe Weather on mobile